Alvechurch, United Kingdom
Current Conditions -  °F | °C
As of 5:50 PM on Saturday 27 Dec 2014 (Local Time) from EGBB Reporting Station
Broken Clouds Broken Clouds  
Wind Chill: 30°   Ceiling: 600
Heat Index: 36°   Visibility: 4mi
Dew Point: 34°   Wind: 7mph
Humidity: 93%   Direction: 340°NNW
Pressure: 29.83"   Gusts: NA
Location:  52.35°N, 1.97°W
Report Text: EGBB 271750Z 34006KT 6000 BKN006 02/01 Q1010
Loading
Personal Weather Stations






























Interactive Weather Map New forecast layout! Learn more

10-Day Weather Forecast

Advertisements
Track Severe Weather on mobile